Time;durP1;ratioP1;P1;durP2;ratioP2;P2;SDS_P1;SDS_P2;PMS_P1;PMS_P2;Temp;Humidity;BMP_temperature;BMP_pressure;BME280_temperature;BME280_humidity;BME280_pressure;Samples;Min_cycle;Max_cycle;Signal;HPM_P1;HPM_P2
2022/01/22 00:01:16;;;;;;;27.58;3.10;;;6.70;99.90;;;;;;5010980;28;20132;-71
2022/01/22 00:03:42;;;;;;;16.20;2.53;;;6.70;99.90;;;;;;5008437;28;20432;-70
2022/01/22 00:06:08;;;;;;;17.23;2.85;;;6.60;99.90;;;;;;5001782;28;20049;-69
2022/01/22 00:08:33;;;;;;;23.80;3.25;;;6.60;99.90;;;;;;4999740;28;20041;-70
2022/01/22 00:10:59;;;;;;;18.45;3.15;;;6.70;99.90;;;;;;4984889;28;20042;-71
2022/01/22 00:16:09;;;;;;;23.40;3.03;;;6.70;99.90;;;;;;5016580;28;20445;-70
2022/01/22 00:18:35;;;;;;;17.80;2.58;;;6.70;99.90;;;;;;4991510;28;20050;-70
2022/01/22 00:21:01;;;;;;;24.38;3.13;;;6.70;99.90;;;;;;4997946;28;20052;-70
2022/01/22 00:23:28;;;;;;;25.58;3.90;;;6.60;99.90;;;;;;4996039;28;20064;-70
2022/01/22 00:25:55;;;;;;;21.83;3.00;;;6.60;99.90;;;;;;4993204;28;20085;-71
2022/01/22 00:28:21;;;;;;;20.85;3.17;;;6.70;99.90;;;;;;4998432;28;20046;-71
2022/01/22 00:30:47;;;;;;;19.20;2.17;;;6.70;99.90;;;;;;5001469;28;20107;-71
2022/01/22 00:33:15;;;;;;;23.55;3.45;;;6.70;99.90;;;;;;5006421;28;20053;-71
2022/01/22 00:35:42;;;;;;;21.17;3.20;;;6.70;99.90;;;;;;4995994;28;20042;-71
2022/01/22 00:38:07;;;;;;;27.38;4.25;;;6.70;99.90;;;;;;4992772;28;20056;-70
2022/01/22 00:40:33;;;;;;;18.00;3.33;;;6.70;99.90;;;;;;4993547;28;20045;-71
2022/01/22 00:42:59;;;;;;;19.60;2.78;;;6.70;99.90;;;;;;5012199;28;20513;-70
2022/01/22 00:45:24;;;;;;;19.70;3.05;;;6.70;99.90;;;;;;4997922;28;20128;-70
2022/01/22 00:47:50;;;;;;;23.10;3.63;;;6.70;99.90;;;;;;4995869;28;20105;-70
2022/01/22 00:50:19;;;;;;;22.58;3.63;;;6.70;99.90;;;;;;4996606;28;20049;-70
2022/01/22 00:52:45;;;;;;;31.33;3.45;;;6.70;99.90;;;;;;5008505;28;20054;-70
2022/01/22 00:55:12;;;;;;;20.40;2.97;;;6.70;99.90;;;;;;4992077;28;20136;-70
2022/01/22 00:57:38;;;;;;;20.15;2.60;;;6.70;99.90;;;;;;5010685;28;20077;-71
2022/01/22 01:00:07;;;;;;;16.45;3.15;;;6.70;99.90;;;;;;4997670;28;20042;-70
2022/01/22 01:02:34;;;;;;;15.38;3.03;;;6.70;99.90;;;;;;5013448;28;20384;-71
2022/01/22 01:05:00;;;;;;;24.38;3.17;;;6.70;99.90;;;;;;5018818;28;20042;-71
2022/01/22 01:07:25;;;;;;;17.13;3.10;;;6.70;99.90;;;;;;4996549;28;20045;-70
2022/01/22 01:09:51;;;;;;;18.35;2.60;;;6.70;99.90;;;;;;5010654;28;20049;-71
2022/01/22 01:12:16;;;;;;;18.73;2.70;;;6.70;99.90;;;;;;5017455;28;20476;-70
2022/01/22 01:14:55;;;;;;;21.60;2.58;;;6.70;99.90;;;;;;4992129;28;20058;-71
2022/01/22 01:32:10;;;;;;;16.60;3.55;;;6.70;99.90;;;;;;5010653;28;20407;-70
2022/01/22 01:34:23;;;;;;;17.73;2.33;;;6.60;99.90;;;;;;4948541;28;20051;-71
2022/01/22 01:36:49;;;;;;;14.63;2.33;;;6.60;99.90;;;;;;4938475;28;20108;-71
2022/01/22 01:39:21;;;;;;;14.48;2.47;;;6.60;99.90;;;;;;4958413;28;20057;-70
2022/01/22 01:41:57;;;;;;;16.40;2.22;;;6.60;99.90;;;;;;4993246;28;20585;-70
2022/01/22 01:44:26;;;;;;;11.32;1.73;;;6.60;99.90;;;;;;5002616;28;20094;-71
2022/01/22 01:46:58;;;;;;;8.27;1.40;;;6.60;99.90;;;;;;5002791;28;20176;-71
2022/01/22 01:49:25;;;;;;;10.57;2.05;;;6.60;99.90;;;;;;4992482;28;20152;-72
2022/01/22 01:51:52;;;;;;;11.98;1.85;;;6.60;99.90;;;;;;4992756;28;20073;-71
2022/01/22 01:59:38;;;;;;;6.72;1.10;;;6.60;99.90;;;;;;5017500;28;20053;-71
2022/01/22 02:02:05;;;;;;;11.05;1.88;;;6.60;99.90;;;;;;4994237;28;20095;-72
2022/01/22 02:04:31;;;;;;;6.90;1.15;;;6.60;99.90;;;;;;5020980;28;20068;-71
2022/01/22 02:06:57;;;;;;;7.65;1.33;;;6.60;99.90;;;;;;5008177;28;20064;-71
2022/01/22 02:09:25;;;;;;;9.95;1.67;;;6.60;99.90;;;;;;4989196;28;20650;-70
2022/01/22 02:12:03;;;;;;;9.65;1.55;;;6.50;99.90;;;;;;4997261;28;20038;-72
2022/01/22 02:25:24;;;;;;;14.85;1.35;;;6.50;99.90;;;;;;5018071;28;20037;-71
2022/01/22 02:27:49;;;;;;;11.93;1.63;;;6.50;99.90;;;;;;4993912;28;20045;-71
2022/01/22 02:30:21;;;;;;;13.82;1.70;;;6.50;99.90;;;;;;4999831;28;20053;-71
2022/01/22 02:35:51;;;;;;;13.57;1.98;;;6.60;99.90;;;;;;5007978;28;20111;-70
2022/01/22 02:38:29;;;;;;;11.75;1.63;;;6.50;99.90;;;;;;4994654;28;20454;-71
2022/01/22 02:40:55;;;;;;;15.13;2.83;;;6.50;99.90;;;;;;5008708;28;20100;-71
2022/01/22 02:43:21;;;;;;;11.20;1.92;;;6.50;99.90;;;;;;5009688;28;20041;-71
2022/01/22 02:45:48;;;;;;;15.93;1.70;;;6.50;99.90;;;;;;5008702;28;20045;-71
2022/01/22 02:48:14;;;;;;;16.40;2.00;;;6.50;99.90;;;;;;5002757;28;20429;-71
2022/01/22 02:50:40;;;;;;;14.68;1.70;;;6.50;99.90;;;;;;5010518;28;20041;-71
2022/01/22 02:53:09;;;;;;;11.80;1.55;;;6.50;99.90;;;;;;5013831;28;20054;-72
2022/01/22 02:55:35;;;;;;;10.40;1.80;;;6.50;99.90;;;;;;4993239;28;20050;-71
2022/01/22 02:58:01;;;;;;;8.63;1.63;;;6.50;99.90;;;;;;4997654;28;20040;-71
2022/01/22 03:00:27;;;;;;;5.88;1.38;;;6.50;99.90;;;;;;5015783;28;20042;-71
2022/01/22 03:02:55;;;;;;;9.55;1.55;;;6.50;99.90;;;;;;4996151;28;20488;-69
2022/01/22 03:05:21;;;;;;;9.13;1.45;;;6.50;99.90;;;;;;4985185;28;20116;-71
2022/01/22 03:07:51;;;;;;;6.63;1.35;;;6.40;99.90;;;;;;4992378;28;20042;-71
2022/01/22 03:10:21;;;;;;;12.38;1.65;;;6.50;99.90;;;;;;5011171;28;20050;-71
2022/01/22 03:13:08;;;;;;;16.67;1.75;;;6.50;99.90;;;;;;5011045;28;20409;-71
2022/01/22 03:18:55;;;;;;;9.60;1.65;;;6.50;99.90;;;;;;4891647;29;20056;-71
2022/01/22 03:29:30;;;;;;;11.98;1.55;;;6.40;99.90;;;;;;4993704;28;20054;-72
2022/01/22 03:31:55;;;;;;;15.50;2.10;;;6.40;99.90;;;;;;4999849;28;20054;-71
2022/01/22 03:34:21;;;;;;;12.68;1.92;;;6.40;99.90;;;;;;4990218;28;20042;-71
2022/01/22 03:36:46;;;;;;;11.00;1.80;;;6.40;99.90;;;;;;5010845;28;20046;-70
2022/01/22 03:39:12;;;;;;;12.15;1.92;;;6.40;99.90;;;;;;5011613;28;20467;-71
2022/01/22 03:41:38;;;;;;;9.15;1.83;;;6.30;99.90;;;;;;5011293;28;20049;-71
2022/01/22 03:44:05;;;;;;;9.18;2.05;;;6.30;99.90;;;;;;4992210;28;20798;-70
2022/01/22 03:46:31;;;;;;;11.95;1.67;;;6.30;99.90;;;;;;4989114;28;20176;-71
2022/01/22 03:48:56;;;;;;;11.45;2.00;;;6.30;99.90;;;;;;5014786;28;20046;-71
2022/01/22 03:51:22;;;;;;;9.82;1.88;;;6.30;99.90;;;;;;5009594;28;20053;-71
2022/01/22 03:53:48;;;;;;;13.60;1.80;;;6.20;99.90;;;;;;5011267;28;20041;-71
2022/01/22 03:56:14;;;;;;;10.77;1.70;;;6.20;99.90;;;;;;5008096;28;20045;-71
2022/01/22 03:58:42;;;;;;;16.77;2.22;;;6.20;99.90;;;;;;4995241;28;20096;-71
2022/01/22 04:03:54;;;;;;;10.43;1.73;;;6.20;99.90;;;;;;5019767;28;20045;-70
2022/01/22 04:08:50;;;;;;;17.10;2.55;;;6.20;99.90;;;;;;5001416;28;20619;-71
2022/01/22 04:11:16;;;;;;;13.30;2.08;;;6.20;99.90;;;;;;5001061;28;20096;-71
2022/01/22 04:13:43;;;;;;;10.38;2.50;;;6.20;99.90;;;;;;5019552;28;20061;-71
2022/01/22 04:16:12;;;;;;;15.82;2.38;;;6.20;99.90;;;;;;5018568;28;20120;-70
2022/01/22 04:27:00;;;;;;;13.85;2.13;;;6.20;99.90;;;;;;5009965;28;20033;-70
2022/01/22 04:29:27;;;;;;;7.70;2.33;;;6.30;99.90;;;;;;5009723;28;20609;-72
2022/01/22 04:31:55;;;;;;;12.77;1.75;;;6.30;99.90;;;;;;5011240;28;20473;-71
2022/01/22 04:34:20;;;;;;;9.23;1.70;;;6.30;99.90;;;;;;4998697;28;20056;-70
2022/01/22 04:36:46;;;;;;;12.23;1.73;;;6.30;99.90;;;;;;5001933;28;20571;-70
2022/01/22 04:39:12;;;;;;;10.43;1.83;;;6.40;99.90;;;;;;5018337;28;20404;-70
2022/01/22 04:41:38;;;;;;;7.88;2.25;;;6.40;99.90;;;;;;4992902;28;20054;-71
2022/01/22 04:44:05;;;;;;;9.02;1.73;;;6.40;99.90;;;;;;5015051;28;20053;-71
2022/01/22 04:54:59;;;;;;;12.63;2.30;;;6.40;99.90;;;;;;5011768;28;20493;-71
2022/01/22 04:57:25;;;;;;;12.30;2.20;;;6.40;99.90;;;;;;5016483;28;20428;-72
2022/01/22 04:59:50;;;;;;;12.65;2.00;;;6.40;99.90;;;;;;4995420;28;20042;-71
2022/01/22 05:02:16;;;;;;;10.00;1.83;;;6.40;99.90;;;;;;4994687;28;20056;-71
2022/01/22 05:04:42;;;;;;;14.00;1.65;;;6.40;99.90;;;;;;5010056;28;20041;-71
2022/01/22 05:07:09;;;;;;;11.18;2.28;;;6.40;99.90;;;;;;5000137;28;20050;-70
2022/01/22 05:09:35;;;;;;;10.25;1.50;;;6.40;99.90;;;;;;5015768;28;20037;-72
2022/01/22 05:12:01;;;;;;;10.05;1.30;;;6.40;99.90;;;;;;5008245;28;20132;-71
2022/01/22 05:14:26;;;;;;;9.38;1.35;;;6.40;99.90;;;;;;5014242;28;20714;-71
2022/01/22 05:16:56;;;;;;;9.02;1.30;;;6.40;99.90;;;;;;5009457;28;20510;-70
2022/01/22 05:19:32;;;;;;;8.70;1.92;;;6.40;99.90;;;;;;4996256;28;20046;-71
2022/01/22 05:22:05;;;;;;;7.50;1.20;;;6.30;99.90;;;;;;5007551;28;20088;-71
2022/01/22 05:24:33;;;;;;;12.38;1.33;;;6.30;99.90;;;;;;5011971;28;20061;-71
2022/01/22 05:37:24;;;;;;;14.35;2.20;;;6.20;99.90;;;;;;4997896;28;20095;-70
2022/01/22 05:39:50;;;;;;;7.53;1.63;;;6.20;99.90;;;;;;5015654;28;20448;-71
2022/01/22 05:42:15;;;;;;;9.32;1.60;;;6.20;99.90;;;;;;4993414;28;20073;-71
2022/01/22 05:44:41;;;;;;;6.18;1.35;;;6.20;99.90;;;;;;5012871;28;20041;-71
2022/01/22 05:47:07;;;;;;;6.85;1.20;;;6.10;99.90;;;;;;4994160;28;20041;-71
2022/01/22 05:49:37;;;;;;;6.70;1.60;;;6.20;99.90;;;;;;4995339;28;20038;-72
2022/01/22 05:52:05;;;;;;;11.60;3.08;;;6.20;99.90;;;;;;4986633;28;20403;-70
2022/01/22 05:54:47;;;;;;;8.80;1.38;;;6.20;99.90;;;;;;4985315;28;20058;-71
2022/01/22 05:59:56;;;;;;;7.43;1.42;;;6.20;99.90;;;;;;4991280;28;20046;-71
2022/01/22 06:02:22;;;;;;;11.50;1.77;;;6.20;99.90;;;;;;4979632;28;20039;-70
2022/01/22 06:04:48;;;;;;;7.20;1.10;;;6.20;99.90;;;;;;4989673;28;20038;-70
2022/01/22 06:07:14;;;;;;;14.55;1.52;;;6.10;99.90;;;;;;4994533;28;20808;-71
2022/01/22 06:09:52;;;;;;;8.90;1.33;;;6.10;99.90;;;;;;4991466;28;20088;-71
2022/01/22 06:12:38;;;;;;;9.65;1.38;;;6.10;99.90;;;;;;4989509;28;20049;-71
2022/01/22 06:15:05;;;;;;;12.93;1.35;;;6.10;99.90;;;;;;4992518;28;20504;-71
2022/01/22 06:17:30;;;;;;;11.25;1.30;;;6.10;99.90;;;;;;4989234;28;20050;-71
2022/01/22 06:19:56;;;;;;;3.15;0.90;;;6.10;99.90;;;;;;4986275;28;20043;-71
2022/01/22 06:22:22;;;;;;;11.95;1.30;;;6.10;99.90;;;;;;4996251;28;20519;-70
2022/01/22 06:24:49;;;;;;;7.65;1.60;;;6.10;99.90;;;;;;4992432;28;20448;-71
2022/01/22 06:27:16;;;;;;;9.50;1.10;;;6.10;99.90;;;;;;5009991;28;20096;-71
2022/01/22 06:29:42;;;;;;;8.10;1.02;;;6.10;99.90;;;;;;5002529;28;20740;-72
2022/01/22 06:32:08;;;;;;;8.07;1.27;;;6.10;99.90;;;;;;4988393;28;20042;-71
2022/01/22 06:34:33;;;;;;;12.00;1.30;;;6.10;99.90;;;;;;4991789;28;20069;-71
2022/01/22 06:36:59;;;;;;;5.43;1.35;;;6.10;99.90;;;;;;4988043;28;20074;-71
2022/01/22 06:39:26;;;;;;;4.63;1.40;;;6.10;99.90;;;;;;4993399;28;20054;-70
2022/01/22 06:41:52;;;;;;;14.90;1.98;;;6.10;99.90;;;;;;4988555;28;20405;-71
2022/01/22 06:44:24;;;;;;;8.77;1.95;;;6.10;99.90;;;;;;4988088;28;20426;-71
2022/01/22 06:46:52;;;;;;;8.15;1.58;;;6.10;99.90;;;;;;4988392;28;20509;-72
2022/01/22 06:49:18;;;;;;;6.60;1.70;;;6.10;99.90;;;;;;5008880;28;20157;-71
2022/01/22 06:51:47;;;;;;;11.38;1.90;;;6.20;99.90;;;;;;5010993;28;20481;-71
2022/01/22 06:54:14;;;;;;;10.73;1.77;;;6.20;99.90;;;;;;4985119;28;20561;-70
2022/01/22 06:56:40;;;;;;;10.98;2.05;;;6.20;99.90;;;;;;4990407;28;20054;-70
2022/01/22 06:59:08;;;;;;;19.15;2.15;;;6.20;99.90;;;;;;4995596;28;20042;-72
2022/01/22 07:01:34;;;;;;;14.18;2.30;;;6.20;99.90;;;;;;4987827;28;20050;-71
2022/01/22 07:04:01;;;;;;;11.90;3.05;;;6.10;99.90;;;;;;4990115;28;20081;-71
2022/01/22 07:06:27;;;;;;;14.23;2.45;;;6.20;99.90;;;;;;4997099;28;20520;-70
2022/01/22 07:08:52;;;;;;;8.32;1.80;;;6.20;99.90;;;;;;4985873;28;20058;-71
2022/01/22 07:11:18;;;;;;;12.35;2.20;;;6.20;99.90;;;;;;4994406;28;20074;-71
2022/01/22 07:13:44;;;;;;;7.57;3.15;;;6.20;99.90;;;;;;4992984;28;20061;-70
2022/01/22 07:16:11;;;;;;;14.88;2.78;;;6.20;99.90;;;;;;4988094;28;20039;-70
2022/01/22 07:18:36;;;;;;;16.77;3.15;;;6.20;99.90;;;;;;4994614;28;20512;-72
2022/01/22 07:21:09;;;;;;;12.95;2.97;;;6.20;99.90;;;;;;4984480;28;20042;-71
2022/01/22 07:26:02;;;;;;;9.10;2.53;;;6.20;99.90;;;;;;4989838;28;20052;-71
2022/01/22 07:28:28;;;;;;;22.40;3.90;;;6.20;99.90;;;;;;4988283;28;20038;-71
2022/01/22 07:30:54;;;;;;;13.60;2.50;;;6.20;99.90;;;;;;4992075;28;20628;-71
2022/01/22 07:33:20;;;;;;;20.35;2.97;;;6.20;99.90;;;;;;4992397;28;20050;-70
2022/01/22 07:35:47;;;;;;;18.95;2.72;;;6.20;99.90;;;;;;4990934;28;20040;-70
2022/01/22 07:38:13;;;;;;;16.52;2.72;;;6.20;99.90;;;;;;4986233;28;20497;-70
2022/01/22 07:40:38;;;;;;;20.65;2.88;;;6.30;99.90;;;;;;4991528;28;20050;-71
2022/01/22 07:43:04;;;;;;;15.13;1.90;;;6.30;99.90;;;;;;4989357;28;20043;-70
2022/01/22 07:45:30;;;;;;;22.55;2.53;;;6.30;99.90;;;;;;4987703;28;20042;-71
2022/01/22 07:47:56;;;;;;;16.00;2.08;;;6.30;99.90;;;;;;4984888;28;20129;-70
2022/01/22 07:50:25;;;;;;;15.80;2.03;;;6.30;99.90;;;;;;4993264;28;20042;-70
2022/01/22 07:52:50;;;;;;;13.35;1.80;;;6.30;99.90;;;;;;4986073;28;20050;-70
2022/01/22 07:55:19;;;;;;;19.67;2.25;;;6.30;99.90;;;;;;4985204;28;20057;-69
2022/01/22 07:57:44;;;;;;;14.57;2.50;;;6.30;99.90;;;;;;4990248;28;20042;-69
2022/01/22 08:00:11;;;;;;;12.07;1.98;;;6.30;99.90;;;;;;4990263;28;20694;-70
2022/01/22 08:02:37;;;;;;;18.15;2.20;;;6.40;99.90;;;;;;4992073;28;20665;-70
2022/01/22 08:05:03;;;;;;;11.85;2.00;;;6.40;99.90;;;;;;4990155;28;20069;-70
2022/01/22 08:07:29;;;;;;;19.05;1.92;;;6.30;99.90;;;;;;4981396;28;20052;-72
2022/01/22 08:09:55;;;;;;;12.65;2.20;;;6.40;99.90;;;;;;4988881;28;20049;-72
2022/01/22 08:12:21;;;;;;;9.95;2.00;;;6.40;99.90;;;;;;4987422;28;20046;-70
2022/01/22 08:14:46;;;;;;;12.93;2.30;;;6.40;99.90;;;;;;4990619;28;20042;-70
2022/01/22 08:17:12;;;;;;;17.90;2.50;;;6.40;99.90;;;;;;4986355;28;20105;-71
2022/01/22 08:19:38;;;;;;;18.85;3.25;;;6.40;99.90;;;;;;4988605;28;20045;-70
2022/01/22 08:22:04;;;;;;;18.77;2.55;;;6.40;99.90;;;;;;4992553;28;20066;-70
2022/01/22 08:24:30;;;;;;;20.30;2.67;;;6.40;99.90;;;;;;4983889;28;20065;-70
2022/01/22 08:29:41;;;;;;;13.32;2.67;;;6.40;99.90;;;;;;4989495;28;20038;-69
2022/01/22 08:32:31;;;;;;;19.10;3.92;;;6.40;99.90;;;;;;4994014;28;20061;-70
2022/01/22 08:37:40;;;;;;;14.73;2.58;;;6.40;99.90;;;;;;4989995;28;20049;-71
2022/01/22 08:40:07;;;;;;;13.90;2.90;;;6.40;99.90;;;;;;4992764;28;20043;-71
2022/01/22 08:42:32;;;;;;;10.50;2.10;;;6.40;99.90;;;;;;4986859;28;20058;-70
2022/01/22 08:44:58;;;;;;;15.13;3.00;;;6.50;99.90;;;;;;4987732;28;20042;-71
2022/01/22 08:47:24;;;;;;;14.38;3.22;;;6.50;99.90;;;;;;4992049;28;20046;-71
2022/01/22 08:49:50;;;;;;;12.32;3.42;;;6.50;99.90;;;;;;5002692;28;20042;-71
2022/01/22 08:52:18;;;;;;;13.88;3.65;;;6.50;99.90;;;;;;5009022;28;20049;-71
2022/01/22 08:54:44;;;;;;;12.45;3.60;;;6.50;99.90;;;;;;4994560;28;20640;-70
2022/01/22 08:57:10;;;;;;;11.70;3.33;;;6.50;99.90;;;;;;5014619;28;20121;-71
2022/01/22 08:59:36;;;;;;;15.20;3.08;;;6.50;99.90;;;;;;4999064;28;20457;-70
2022/01/22 09:02:04;;;;;;;16.50;3.60;;;6.60;99.90;;;;;;5016173;28;20052;-70
2022/01/22 09:04:31;;;;;;;21.45;4.10;;;6.60;99.90;;;;;;4981224;28;20042;-71
2022/01/22 09:06:57;;;;;;;19.23;3.85;;;6.60;99.90;;;;;;5016655;28;20378;-71
2022/01/22 09:09:23;;;;;;;18.38;3.05;;;6.60;99.90;;;;;;4989077;28;20045;-70
2022/01/22 09:11:49;;;;;;;8.95;2.65;;;6.60;99.90;;;;;;4992022;28;21235;-70
2022/01/22 09:14:17;;;;;;;15.68;3.72;;;6.70;99.90;;;;;;4998441;28;20053;-69
2022/01/22 09:16:48;;;;;;;13.20;3.40;;;6.70;99.90;;;;;;5013495;28;20482;-70
2022/01/22 09:19:15;;;;;;;17.27;3.35;;;6.70;99.90;;;;;;5008383;28;20522;-71
2022/01/22 09:21:46;;;;;;;13.93;3.58;;;6.70;99.90;;;;;;4993846;28;20033;-71
2022/01/22 09:24:15;;;;;;;15.25;3.22;;;6.70;99.90;;;;;;5007793;28;20049;-71
2022/01/22 09:26:42;;;;;;;16.73;3.40;;;6.70;99.90;;;;;;4993362;28;20041;-69
2022/01/22 09:29:08;;;;;;;13.65;3.45;;;6.80;99.90;;;;;;4992700;28;20121;-71
2022/01/22 09:31:34;;;;;;;17.20;3.03;;;6.80;99.90;;;;;;5013385;28;20077;-70
2022/01/22 09:34:01;;;;;;;10.40;3.25;;;6.80;99.90;;;;;;5016785;28;20082;-71
2022/01/22 09:36:29;;;;;;;21.52;3.97;;;6.80;99.90;;;;;;4986490;28;20042;-71
2022/01/22 09:38:55;;;;;;;13.63;2.75;;;6.80;99.90;;;;;;4991989;28;20061;-71
2022/01/22 09:41:23;;;;;;;16.83;3.78;;;6.90;99.90;;;;;;5008223;28;20044;-70
2022/01/22 09:43:50;;;;;;;13.43;2.35;;;6.90;99.90;;;;;;4997412;28;20752;-70
2022/01/22 09:46:15;;;;;;;11.60;3.22;;;6.90;99.90;;;;;;4988870;28;20050;-71
2022/01/22 09:48:43;;;;;;;10.10;2.92;;;6.90;99.90;;;;;;5000315;28;20132;-69
2022/01/22 09:51:09;;;;;;;10.00;2.85;;;6.90;99.90;;;;;;4989504;28;20053;-70
2022/01/22 09:53:36;;;;;;;15.63;2.78;;;6.90;99.90;;;;;;4993528;28;20073;-70
2022/01/22 09:56:02;;;;;;;21.50;3.63;;;6.90;99.90;;;;;;5011812;28;20450;-71
2022/01/22 09:58:28;;;;;;;20.42;2.97;;;6.90;99.90;;;;;;4990310;28;20066;-70
2022/01/22 10:00:54;;;;;;;18.40;3.30;;;7.00;99.90;;;;;;5007550;28;20274;-71
2022/01/22 10:03:21;;;;;;;15.82;2.70;;;7.00;99.90;;;;;;4998245;28;20536;-71
2022/01/22 10:05:47;;;;;;;12.90;3.45;;;7.00;99.90;;;;;;4995123;28;20458;-71
2022/01/22 10:08:17;;;;;;;17.13;2.75;;;7.00;99.90;;;;;;5008301;28;20467;-69
2022/01/22 10:10:42;;;;;;;14.43;3.13;;;7.00;99.90;;;;;;4991890;28;20049;-69
2022/01/22 10:13:08;;;;;;;14.90;3.15;;;7.10;99.90;;;;;;5015616;28;20405;-70
2022/01/22 10:15:35;;;;;;;12.98;2.95;;;7.10;99.90;;;;;;4991985;28;20401;-70
2022/01/22 10:18:02;;;;;;;13.75;2.40;;;7.10;99.90;;;;;;4991959;28;20169;-69
2022/01/22 10:20:41;;;;;;;23.08;2.97;;;7.10;99.90;;;;;;5007689;28;20073;-67
2022/01/22 10:23:25;;;;;;;11.68;2.30;;;7.10;99.90;;;;;;5012391;28;20103;-67
2022/01/22 10:26:00;;;;;;;16.17;2.20;;;7.20;99.90;;;;;;4994559;28;20050;-67
2022/01/22 10:28:27;;;;;;;14.13;2.45;;;7.20;99.90;;;;;;5006623;28;20045;-69
2022/01/22 10:31:03;;;;;;;14.30;2.20;;;7.20;99.90;;;;;;5014423;28;20042;-68
2022/01/22 10:33:36;;;;;;;17.02;3.25;;;7.20;99.90;;;;;;4994132;28;20072;-68
2022/01/22 10:36:18;;;;;;;20.38;2.65;;;7.20;99.90;;;;;;5008187;28;20161;-68
2022/01/22 10:38:49;;;;;;;8.40;2.63;;;7.20;99.90;;;;;;4989215;28;20425;-68
2022/01/22 10:41:19;;;;;;;13.15;2.25;;;7.20;99.90;;;;;;5012892;28;20166;-68
2022/01/22 10:43:57;;;;;;;20.20;3.10;;;7.20;99.90;;;;;;5010149;28;20124;-69
2022/01/22 10:46:34;;;;;;;15.43;2.90;;;7.20;99.90;;;;;;4975732;28;20370;-67
2022/01/22 10:49:10;;;;;;;11.38;2.45;;;7.20;99.90;;;;;;5002267;28;20441;-70
2022/01/22 10:52:07;;;;;;;13.32;3.25;;;7.20;99.90;;;;;;4997216;28;20046;-69
2022/01/22 10:54:34;;;;;;;14.30;2.72;;;7.20;99.90;;;;;;4968011;28;20045;-69
2022/01/22 10:57:23;;;;;;;11.98;2.40;;;7.20;99.90;;;;;;5015870;28;20057;-69
2022/01/22 10:59:55;;;;;;;14.02;2.85;;;7.30;99.90;;;;;;5009090;28;20116;-68
2022/01/22 11:02:38;;;;;;;11.75;2.42;;;7.30;99.90;;;;;;4967112;28;20198;-70
2022/01/22 11:05:05;;;;;;;14.00;2.70;;;7.30;99.90;;;;;;5007588;28;20137;-69
2022/01/22 11:07:31;;;;;;;18.42;3.45;;;7.30;99.90;;;;;;4996422;28;20046;-68
2022/01/22 11:09:57;;;;;;;18.85;3.72;;;7.30;99.90;;;;;;5009268;28;20260;-68
2022/01/22 11:12:25;;;;;;;11.20;2.50;;;7.30;99.90;;;;;;5001485;28;20045;-69
2022/01/22 11:14:50;;;;;;;16.92;2.38;;;7.30;99.90;;;;;;5009029;28;20042;-69
2022/01/22 11:17:18;;;;;;;18.83;2.50;;;7.30;99.90;;;;;;5012725;28;20050;-69
2022/01/22 11:19:45;;;;;;;12.05;2.47;;;7.30;99.90;;;;;;4991780;28;20052;-68
2022/01/22 11:22:13;;;;;;;11.40;2.53;;;7.30;99.90;;;;;;5012286;28;20038;-69
2022/01/22 11:24:43;;;;;;;13.82;2.30;;;7.30;99.90;;;;;;4998198;28;20088;-69
2022/01/22 11:27:11;;;;;;;20.70;3.50;;;7.30;99.90;;;;;;5009874;28;20100;-69
2022/01/22 11:29:41;;;;;;;16.10;2.20;;;7.30;99.90;;;;;;4997824;28;20120;-68
2022/01/22 11:32:12;;;;;;;12.95;2.05;;;7.30;99.90;;;;;;5011684;28;20046;-69
2022/01/22 11:34:40;;;;;;;10.85;2.30;;;7.20;99.90;;;;;;5009596;28;20041;-68
2022/01/22 11:37:38;;;;;;;13.70;3.00;;;7.20;99.90;;;;;;4992073;28;20538;-68
2022/01/22 11:40:21;;;;;;;16.50;2.45;;;7.30;99.90;;;;;;5013674;28;20109;-68
2022/01/22 11:42:57;;;;;;;10.25;2.28;;;7.30;99.90;;;;;;5010337;28;20061;-69
2022/01/22 11:45:33;;;;;;;8.98;2.08;;;7.30;99.90;;;;;;4995362;28;20493;-68
2022/01/22 11:48:13;;;;;;;13.57;2.50;;;7.30;99.90;;;;;;4990414;28;22124;-68
2022/01/22 11:50:40;;;;;;;7.63;2.00;;;7.30;99.90;;;;;;5005807;28;20056;-69
2022/01/22 11:53:22;;;;;;;14.82;2.42;;;7.30;99.90;;;;;;5012237;28;20272;-69
2022/01/22 11:56:07;;;;;;;17.48;2.63;;;7.30;99.90;;;;;;4994319;28;20128;-68
2022/01/22 11:58:33;;;;;;;13.38;1.95;;;7.30;99.90;;;;;;5005885;28;20054;-68
2022/01/22 12:00:59;;;;;;;7.03;1.65;;;7.40;99.90;;;;;;5004845;28;20050;-70
2022/01/22 12:03:24;;;;;;;6.45;1.60;;;7.40;99.90;;;;;;4982345;28;20060;-70
2022/01/22 12:05:53;;;;;;;10.45;2.35;;;7.40;99.90;;;;;;4991579;28;20043;-68
2022/01/22 12:08:23;;;;;;;11.93;2.10;;;7.40;99.90;;;;;;4993478;28;20134;-68
2022/01/22 12:16:51;;;;;;;6.50;1.75;;;7.30;99.90;;;;;;4997029;28;20062;-70
2022/01/22 12:19:51;;;;;;;8.18;1.70;;;7.30;99.90;;;;;;5008045;28;20038;-71
2022/01/22 12:22:35;;;;;;;14.00;1.60;;;7.40;99.90;;;;;;5009594;28;20165;-70
2022/01/22 12:25:22;;;;;;;5.93;1.40;;;7.30;99.90;;;;;;5008813;28;20042;-70
2022/01/22 12:27:49;;;;;;;6.82;1.40;;;7.30;99.90;;;;;;5004273;28;20196;-72
2022/01/22 12:30:17;;;;;;;12.50;2.22;;;7.30;99.90;;;;;;5009453;28;20398;-71
2022/01/22 12:32:48;;;;;;;4.88;1.35;;;7.30;99.90;;;;;;4996527;28;20498;-70
2022/01/22 12:35:17;;;;;;;12.18;2.10;;;7.30;99.90;;;;;;5007213;28;20045;-69
2022/01/22 12:37:48;;;;;;;6.63;1.48;;;7.30;99.90;;;;;;5011542;28;20394;-71
2022/01/22 12:40:27;;;;;;;7.18;1.25;;;7.30;99.90;;;;;;5011815;28;20046;-71
2022/01/22 12:43:06;;;;;;;9.50;1.60;;;7.30;99.90;;;;;;4992179;28;20559;-70
2022/01/22 12:45:34;;;;;;;8.90;2.05;;;7.30;99.90;;;;;;5008020;28;20072;-68
2022/01/22 12:48:01;;;;;;;12.77;1.90;;;7.30;99.90;;;;;;5009319;28;20045;-70
2022/01/22 12:50:30;;;;;;;15.18;2.72;;;7.30;99.90;;;;;;5014057;28;20046;-69
2022/01/22 12:53:03;;;;;;;7.70;1.83;;;7.30;99.90;;;;;;4992182;28;20042;-69
2022/01/22 12:58:23;;;;;;;5.68;1.50;;;7.30;99.90;;;;;;4992048;28;20052;-70
2022/01/22 13:00:51;;;;;;;;;;;7.30;99.90;;;;;;4994120;28;20042;-68
2022/01/22 13:03:35;;;;;;;10.93;1.85;;;7.30;99.90;;;;;;4993148;28;19936;-67
2022/01/22 13:06:01;;;;;;;8.85;1.42;;;7.30;99.90;;;;;;4983220;28;20038;-68
2022/01/22 13:08:32;;;;;;;7.85;1.55;;;7.20;99.90;;;;;;4991777;28;20034;-69
2022/01/22 13:11:01;;;;;;;10.75;1.23;;;7.20;99.90;;;;;;5010473;28;20441;-69
2022/01/22 13:13:27;;;;;;;6.80;1.55;;;7.20;99.90;;;;;;4989001;28;20567;-70
2022/01/22 13:16:08;;;;;;;12.07;1.42;;;7.20;99.90;;;;;;5010606;28;20590;-69
2022/01/22 13:18:58;;;;;;;9.55;1.60;;;7.20;99.90;;;;;;4986679;28;20061;-68
2022/01/22 13:21:26;;;;;;;7.82;1.75;;;7.20;99.90;;;;;;4990296;28;20038;-68
2022/01/22 13:24:04;;;;;;;8.40;1.45;;;7.20;99.90;;;;;;4992461;28;20049;-68
2022/01/22 13:26:57;;;;;;;8.50;1.70;;;7.20;99.90;;;;;;4995788;28;20050;-67
2022/01/22 13:29:31;;;;;;;10.73;1.25;;;7.20;99.90;;;;;;4989554;28;20077;-69
2022/01/22 13:32:06;;;;;;;5.65;1.58;;;7.20;99.90;;;;;;5007069;28;20041;-69
2022/01/22 13:34:50;;;;;;;8.75;1.70;;;7.20;99.90;;;;;;4984203;28;20560;-70
2022/01/22 13:47:56;;;;;;;8.98;1.67;;;7.20;99.90;;;;;;4946489;28;20050;-70
2022/01/22 13:50:25;;;;;;;11.93;1.55;;;7.20;99.90;;;;;;4988937;28;20157;-70
2022/01/22 13:52:50;;;;;;;8.68;1.85;;;7.20;99.90;;;;;;5005372;28;20041;-68
2022/01/22 13:55:17;;;;;;;12.52;1.63;;;7.20;99.90;;;;;;4987054;28;20044;-70
2022/01/22 13:57:44;;;;;;;8.45;1.42;;;7.10;99.90;;;;;;5007795;28;20505;-70
2022/01/22 14:00:17;;;;;;;13.30;1.85;;;7.10;99.90;;;;;;4996044;28;20042;-70
2022/01/22 14:03:31;;;;;;;8.15;1.60;;;7.10;99.90;;;;;;4989546;28;20042;-70
2022/01/22 14:05:34;;;;;;;12.52;1.48;;;7.10;99.90;;;;;;4978896;28;20042;-71
2022/01/22 14:08:07;;;;;;;8.45;1.80;;;7.10;99.90;;;;;;4986370;28;20053;-71
2022/01/22 14:10:35;;;;;;;12.57;1.73;;;7.00;99.90;;;;;;4995853;28;20042;-71
2022/01/22 14:13:08;;;;;;;10.00;1.50;;;7.00;99.90;;;;;;4983937;28;20038;-72
2022/01/22 14:15:43;;;;;;;8.90;1.90;;;7.00;99.90;;;;;;4993717;28;20030;-71
2022/01/22 14:20:52;;;;;;;9.35;1.33;;;7.00;99.90;;;;;;4985589;28;20041;-71
2022/01/22 14:23:24;;;;;;;9.90;1.88;;;7.10;99.90;;;;;;5006598;28;20069;-71
2022/01/22 14:26:08;;;;;;;9.23;1.60;;;7.10;99.90;;;;;;4988758;28;20048;-71
2022/01/22 14:28:43;;;;;;;7.60;1.40;;;7.10;99.90;;;;;;4986704;28;20521;-71
2022/01/22 14:31:31;;;;;;;8.40;1.48;;;7.10;99.90;;;;;;5000325;28;20046;-72
2022/01/22 14:33:59;;;;;;;13.77;1.80;;;7.10;99.90;;;;;;5001316;28;22408;-72
2022/01/22 14:36:38;;;;;;;8.75;1.50;;;7.10;99.90;;;;;;5005802;28;20387;-71
2022/01/22 14:39:13;;;;;;;10.43;2.80;;;7.00;99.90;;;;;;4985489;28;20042;-71
2022/01/22 14:44:38;;;;;;;10.63;1.48;;;7.00;99.90;;;;;;4984565;28;20053;-70
2022/01/22 14:47:23;;;;;;;5.38;1.45;;;6.90;99.90;;;;;;4983390;28;20129;-71
2022/01/22 14:50:09;;;;;;;11.75;1.77;;;6.90;99.90;;;;;;4980064;28;20046;-71
2022/01/22 14:52:36;;;;;;;5.28;1.42;;;6.90;99.90;;;;;;4984673;28;20101;-70
2022/01/22 14:55:08;;;;;;;10.50;2.50;;;6.80;99.90;;;;;;4981194;28;20504;-70
2022/01/22 14:57:38;;;;;;;8.82;1.65;;;6.80;99.90;;;;;;4982760;28;20038;-71